sensor_id;sensor_type;location;lat;lon;timestamp;P1;durP1;ratioP1;P2;durP2;ratioP2
74415;SDS011;62850;42.428;25.618;2023-11-18T00:00:57;6.03;;;3.08;;
74415;SDS011;62850;42.428;25.618;2023-11-18T00:03:23;6.22;;;3.40;;
74415;SDS011;62850;42.428;25.618;2023-11-18T00:05:49;6.28;;;3.42;;
74415;SDS011;62850;42.428;25.618;2023-11-18T00:08:15;7.90;;;3.30;;
74415;SDS011;62850;42.428;25.618;2023-11-18T00:10:40;5.45;;;3.20;;
74415;SDS011;62850;42.428;25.618;2023-11-18T00:13:06;5.18;;;3.08;;
74415;SDS011;62850;42.428;25.618;2023-11-18T00:15:31;6.32;;;3.30;;
74415;SDS011;62850;42.428;25.618;2023-11-18T00:17:59;6.85;;;3.15;;
74415;SDS011;62850;42.428;25.618;2023-11-18T00:20:25;7.32;;;3.20;;
74415;SDS011;62850;42.428;25.618;2023-11-18T00:22:50;6.80;;;3.20;;
74415;SDS011;62850;42.428;25.618;2023-11-18T00:25:17;5.28;;;2.58;;
74415;SDS011;62850;42.428;25.618;2023-11-18T00:27:43;5.90;;;3.20;;
74415;SDS011;62850;42.428;25.618;2023-11-18T00:30:09;5.10;;;2.75;;
74415;SDS011;62850;42.428;25.618;2023-11-18T00:32:38;5.55;;;2.70;;
74415;SDS011;62850;42.428;25.618;2023-11-18T00:35:03;4.90;;;2.75;;
74415;SDS011;62850;42.428;25.618;2023-11-18T00:37:33;5.50;;;3.20;;
74415;SDS011;62850;42.428;25.618;2023-11-18T00:39:58;4.80;;;2.90;;
74415;SDS011;62850;42.428;25.618;2023-11-18T00:42:24;6.57;;;3.35;;
74415;SDS011;62850;42.428;25.618;2023-11-18T00:44:50;5.28;;;3.08;;
74415;SDS011;62850;42.428;25.618;2023-11-18T00:47:15;6.65;;;3.17;;
74415;SDS011;62850;42.428;25.618;2023-11-18T00:49:41;6.25;;;2.88;;
74415;SDS011;62850;42.428;25.618;2023-11-18T00:52:06;6.68;;;2.83;;
74415;SDS011;62850;42.428;25.618;2023-11-18T00:54:32;5.97;;;2.92;;
74415;SDS011;62850;42.428;25.618;2023-11-18T00:56:57;4.72;;;2.42;;
74415;SDS011;62850;42.428;25.618;2023-11-18T00:59:23;5.43;;;2.63;;
74415;SDS011;62850;42.428;25.618;2023-11-18T01:01:48;4.88;;;2.70;;
74415;SDS011;62850;42.428;25.618;2023-11-18T01:04:14;3.92;;;1.77;;
74415;SDS011;62850;42.428;25.618;2023-11-18T01:06:41;2.45;;;1.20;;
74415;SDS011;62850;42.428;25.618;2023-11-18T01:09:07;3.55;;;1.30;;
74415;SDS011;62850;42.428;25.618;2023-11-18T01:11:34;2.80;;;1.20;;
74415;SDS011;62850;42.428;25.618;2023-11-18T01:14:00;2.45;;;1.00;;
74415;SDS011;62850;42.428;25.618;2023-11-18T01:16:27;2.20;;;1.00;;
74415;SDS011;62850;42.428;25.618;2023-11-18T01:18:53;5.25;;;1.25;;
74415;SDS011;62850;42.428;25.618;2023-11-18T01:21:19;2.45;;;1.13;;
74415;SDS011;62850;42.428;25.618;2023-11-18T01:23:45;2.10;;;1.10;;
74415;SDS011;62850;42.428;25.618;2023-11-18T01:26:11;3.22;;;1.20;;
74415;SDS011;62850;42.428;25.618;2023-11-18T01:28:37;3.05;;;1.50;;
74415;SDS011;62850;42.428;25.618;2023-11-18T01:31:06;3.10;;;1.67;;
74415;SDS011;62850;42.428;25.618;2023-11-18T01:33:35;3.30;;;1.70;;
74415;SDS011;62850;42.428;25.618;2023-11-18T01:36:02;3.83;;;2.00;;
74415;SDS011;62850;42.428;25.618;2023-11-18T01:38:28;3.45;;;2.00;;
74415;SDS011;62850;42.428;25.618;2023-11-18T01:40:54;4.32;;;2.38;;
74415;SDS011;62850;42.428;25.618;2023-11-18T01:43:20;4.40;;;1.80;;
74415;SDS011;62850;42.428;25.618;2023-11-18T01:45:47;3.50;;;1.83;;
74415;SDS011;62850;42.428;25.618;2023-11-18T01:48:13;3.97;;;2.17;;
74415;SDS011;62850;42.428;25.618;2023-11-18T01:50:39;4.78;;;2.08;;
74415;SDS011;62850;42.428;25.618;2023-11-18T01:53:07;5.25;;;2.03;;
74415;SDS011;62850;42.428;25.618;2023-11-18T01:55:35;4.38;;;1.92;;
74415;SDS011;62850;42.428;25.618;2023-11-18T01:58:01;3.20;;;1.73;;
74415;SDS011;62850;42.428;25.618;2023-11-18T02:00:37;4.32;;;2.08;;
74415;SDS011;62850;42.428;25.618;2023-11-18T02:03:07;4.82;;;2.65;;
74415;SDS011;62850;42.428;25.618;2023-11-18T02:05:34;5.68;;;2.78;;
74415;SDS011;62850;42.428;25.618;2023-11-18T02:08:00;3.53;;;1.90;;
74415;SDS011;62850;42.428;25.618;2023-11-18T02:10:29;3.63;;;1.50;;
74415;SDS011;62850;42.428;25.618;2023-11-18T02:15:31;3.60;;;1.60;;
74415;SDS011;62850;42.428;25.618;2023-11-18T02:17:59;3.20;;;1.50;;
74415;SDS011;62850;42.428;25.618;2023-11-18T02:20:28;3.10;;;1.20;;
74415;SDS011;62850;42.428;25.618;2023-11-18T02:22:55;2.22;;;0.80;;
74415;SDS011;62850;42.428;25.618;2023-11-18T02:25:23;1.65;;;0.75;;
74415;SDS011;62850;42.428;25.618;2023-11-18T02:27:52;1.15;;;0.63;;
74415;SDS011;62850;42.428;25.618;2023-11-18T02:30:18;1.15;;;0.80;;
74415;SDS011;62850;42.428;25.618;2023-11-18T02:35:24;1.25;;;0.63;;
74415;SDS011;62850;42.428;25.618;2023-11-18T02:37:52;1.65;;;0.80;;
74415;SDS011;62850;42.428;25.618;2023-11-18T02:40:20;1.80;;;0.80;;
74415;SDS011;62850;42.428;25.618;2023-11-18T02:42:51;1.80;;;0.80;;
74415;SDS011;62850;42.428;25.618;2023-11-18T02:45:19;1.00;;;0.70;;
74415;SDS011;62850;42.428;25.618;2023-11-18T02:47:46;2.22;;;0.90;;
74415;SDS011;62850;42.428;25.618;2023-11-18T02:50:12;1.50;;;0.88;;
74415;SDS011;62850;42.428;25.618;2023-11-18T02:52:39;1.45;;;0.70;;
74415;SDS011;62850;42.428;25.618;2023-11-18T02:55:08;1.77;;;0.80;;
74415;SDS011;62850;42.428;25.618;2023-11-18T02:57:34;2.03;;;0.82;;
74415;SDS011;62850;42.428;25.618;2023-11-18T03:00:03;2.25;;;0.80;;
74415;SDS011;62850;42.428;25.618;2023-11-18T03:02:30;1.70;;;0.90;;
74415;SDS011;62850;42.428;25.618;2023-11-18T03:04:59;2.42;;;1.08;;
74415;SDS011;62850;42.428;25.618;2023-11-18T03:07:25;2.33;;;1.02;;
74415;SDS011;62850;42.428;25.618;2023-11-18T03:09:52;1.55;;;0.70;;
74415;SDS011;62850;42.428;25.618;2023-11-18T03:12:22;1.88;;;0.90;;
74415;SDS011;62850;42.428;25.618;2023-11-18T03:14:47;1.83;;;0.95;;
74415;SDS011;62850;42.428;25.618;2023-11-18T03:17:13;3.72;;;0.85;;
74415;SDS011;62850;42.428;25.618;2023-11-18T03:19:39;1.63;;;0.80;;
74415;SDS011;62850;42.428;25.618;2023-11-18T03:22:04;1.70;;;0.70;;
74415;SDS011;62850;42.428;25.618;2023-11-18T03:24:30;1.45;;;0.77;;
74415;SDS011;62850;42.428;25.618;2023-11-18T03:26:55;1.67;;;0.82;;
74415;SDS011;62850;42.428;25.618;2023-11-18T03:29:21;1.48;;;0.65;;
74415;SDS011;62850;42.428;25.618;2023-11-18T03:31:47;1.40;;;0.65;;
74415;SDS011;62850;42.428;25.618;2023-11-18T03:34:14;1.33;;;0.60;;
74415;SDS011;62850;42.428;25.618;2023-11-18T03:36:40;0.95;;;0.60;;
74415;SDS011;62850;42.428;25.618;2023-11-18T03:39:06;1.20;;;0.60;;
74415;SDS011;62850;42.428;25.618;2023-11-18T03:41:31;0.75;;;0.60;;
74415;SDS011;62850;42.428;25.618;2023-11-18T03:43:57;0.93;;;0.30;;
74415;SDS011;62850;42.428;25.618;2023-11-18T03:46:23;1.77;;;0.70;;
74415;SDS011;62850;42.428;25.618;2023-11-18T03:48:48;2.38;;;0.60;;
74415;SDS011;62850;42.428;25.618;2023-11-18T03:51:14;1.58;;;0.60;;
74415;SDS011;62850;42.428;25.618;2023-11-18T03:53:42;0.73;;;0.47;;
74415;SDS011;62850;42.428;25.618;2023-11-18T03:56:07;1.10;;;0.65;;
74415;SDS011;62850;42.428;25.618;2023-11-18T03:58:33;1.27;;;0.60;;
74415;SDS011;62850;42.428;25.618;2023-11-18T04:00:59;0.40;;;0.40;;
74415;SDS011;62850;42.428;25.618;2023-11-18T04:03:26;1.15;;;0.55;;
74415;SDS011;62850;42.428;25.618;2023-11-18T04:05:52;0.93;;;0.60;;
74415;SDS011;62850;42.428;25.618;2023-11-18T04:08:17;2.47;;;0.90;;
74415;SDS011;62850;42.428;25.618;2023-11-18T04:10:43;0.60;;;0.50;;
74415;SDS011;62850;42.428;25.618;2023-11-18T04:13:08;1.77;;;0.60;;
74415;SDS011;62850;42.428;25.618;2023-11-18T04:15:34;1.00;;;0.63;;
74415;SDS011;62850;42.428;25.618;2023-11-18T04:18:00;1.52;;;0.60;;
74415;SDS011;62850;42.428;25.618;2023-11-18T04:20:26;1.92;;;0.73;;
74415;SDS011;62850;42.428;25.618;2023-11-18T04:22:52;1.65;;;0.70;;
74415;SDS011;62850;42.428;25.618;2023-11-18T04:25:19;1.15;;;0.60;;
74415;SDS011;62850;42.428;25.618;2023-11-18T04:27:46;2.22;;;0.80;;
74415;SDS011;62850;42.428;25.618;2023-11-18T04:30:11;1.30;;;0.63;;
74415;SDS011;62850;42.428;25.618;2023-11-18T04:32:37;1.67;;;0.50;;
74415;SDS011;62850;42.428;25.618;2023-11-18T04:35:03;2.20;;;0.70;;
74415;SDS011;62850;42.428;25.618;2023-11-18T04:37:32;1.58;;;0.73;;
74415;SDS011;62850;42.428;25.618;2023-11-18T04:39:59;1.25;;;0.43;;
74415;SDS011;62850;42.428;25.618;2023-11-18T04:42:25;0.77;;;0.40;;
74415;SDS011;62850;42.428;25.618;2023-11-18T04:44:50;2.85;;;0.80;;
74415;SDS011;62850;42.428;25.618;2023-11-18T04:47:16;1.40;;;0.60;;
74415;SDS011;62850;42.428;25.618;2023-11-18T04:49:43;1.42;;;0.55;;
74415;SDS011;62850;42.428;25.618;2023-11-18T04:52:09;1.15;;;0.50;;
74415;SDS011;62850;42.428;25.618;2023-11-18T04:54:35;1.13;;;0.43;;
74415;SDS011;62850;42.428;25.618;2023-11-18T04:57:00;1.13;;;0.60;;
74415;SDS011;62850;42.428;25.618;2023-11-18T04:59:26;1.40;;;0.25;;
74415;SDS011;62850;42.428;25.618;2023-11-18T05:01:51;0.80;;;0.40;;
74415;SDS011;62850;42.428;25.618;2023-11-18T05:04:18;0.40;;;0.40;;
74415;SDS011;62850;42.428;25.618;2023-11-18T05:06:44;0.63;;;0.28;;
74415;SDS011;62850;42.428;25.618;2023-11-18T05:09:09;1.63;;;0.40;;
74415;SDS011;62850;42.428;25.618;2023-11-18T05:11:35;0.80;;;0.40;;
74415;SDS011;62850;42.428;25.618;2023-11-18T05:14:01;0.95;;;0.40;;
74415;SDS011;62850;42.428;25.618;2023-11-18T05:16:28;1.42;;;0.45;;
74415;SDS011;62850;42.428;25.618;2023-11-18T05:18:54;0.75;;;0.30;;
74415;SDS011;62850;42.428;25.618;2023-11-18T05:21:20;0.73;;;0.35;;
74415;SDS011;62850;42.428;25.618;2023-11-18T05:23:45;3.25;;;0.50;;
74415;SDS011;62850;42.428;25.618;2023-11-18T05:26:11;0.90;;;0.40;;
74415;SDS011;62850;42.428;25.618;2023-11-18T05:28:36;0.63;;;0.35;;
74415;SDS011;62850;42.428;25.618;2023-11-18T05:31:03;1.00;;;0.20;;
74415;SDS011;62850;42.428;25.618;2023-11-18T05:33:30;2.13;;;0.60;;
74415;SDS011;62850;42.428;25.618;2023-11-18T05:35:56;0.43;;;0.20;;
74415;SDS011;62850;42.428;25.618;2023-11-18T05:38:22;0.38;;;0.28;;
74415;SDS011;62850;42.428;25.618;2023-11-18T05:40:49;0.80;;;0.30;;
74415;SDS011;62850;42.428;25.618;2023-11-18T05:43:27;0.65;;;0.30;;
74415;SDS011;62850;42.428;25.618;2023-11-18T05:46:01;0.43;;;0.30;;
74415;SDS011;62850;42.428;25.618;2023-11-18T05:48:47;0.47;;;0.25;;
74415;SDS011;62850;42.428;25.618;2023-11-18T05:51:14;2.70;;;0.38;;
74415;SDS011;62850;42.428;25.618;2023-11-18T05:53:43;0.63;;;0.30;;
74415;SDS011;62850;42.428;25.618;2023-11-18T05:56:12;0.75;;;0.40;;
74415;SDS011;62850;42.428;25.618;2023-11-18T05:58:38;1.23;;;0.30;;
74415;SDS011;62850;42.428;25.618;2023-11-18T06:01:04;0.40;;;0.20;;
74415;SDS011;62850;42.428;25.618;2023-11-18T06:03:33;0.55;;;0.32;;
74415;SDS011;62850;42.428;25.618;2023-11-18T06:06:03;0.20;;;0.10;;
74415;SDS011;62850;42.428;25.618;2023-11-18T06:08:32;0.45;;;0.20;;
74415;SDS011;62850;42.428;25.618;2023-11-18T06:10:58;1.10;;;0.40;;
74415;SDS011;62850;42.428;25.618;2023-11-18T06:13:25;0.43;;;0.30;;
74415;SDS011;62850;42.428;25.618;2023-11-18T06:15:52;0.47;;;0.20;;
74415;SDS011;62850;42.428;25.618;2023-11-18T06:18:18;0.20;;;0.20;;
74415;SDS011;62850;42.428;25.618;2023-11-18T06:20:44;0.40;;;0.30;;
74415;SDS011;62850;42.428;25.618;2023-11-18T06:23:09;1.48;;;0.55;;
74415;SDS011;62850;42.428;25.618;2023-11-18T06:25:35;1.05;;;0.50;;
74415;SDS011;62850;42.428;25.618;2023-11-18T06:28:01;3.33;;;0.90;;
74415;SDS011;62850;42.428;25.618;2023-11-18T06:30:27;1.45;;;0.70;;
74415;SDS011;62850;42.428;25.618;2023-11-18T06:32:53;3.15;;;1.48;;
74415;SDS011;62850;42.428;25.618;2023-11-18T06:35:18;0.28;;;0.20;;
74415;SDS011;62850;42.428;25.618;2023-11-18T06:37:46;1.40;;;0.43;;
74415;SDS011;62850;42.428;25.618;2023-11-18T06:40:12;0.65;;;0.50;;
74415;SDS011;62850;42.428;25.618;2023-11-18T06:42:44;0.95;;;0.57;;
74415;SDS011;62850;42.428;25.618;2023-11-18T06:45:15;1.88;;;0.80;;
74415;SDS011;62850;42.428;25.618;2023-11-18T06:47:41;2.22;;;0.90;;
74415;SDS011;62850;42.428;25.618;2023-11-18T06:50:09;1.52;;;0.60;;
74415;SDS011;62850;42.428;25.618;2023-11-18T06:52:39;1.70;;;0.70;;
74415;SDS011;62850;42.428;25.618;2023-11-18T06:55:06;1.10;;;0.57;;
74415;SDS011;62850;42.428;25.618;2023-11-18T06:57:36;1.48;;;0.65;;
74415;SDS011;62850;42.428;25.618;2023-11-18T07:00:02;0.82;;;0.30;;
74415;SDS011;62850;42.428;25.618;2023-11-18T07:02:33;2.97;;;0.60;;
74415;SDS011;62850;42.428;25.618;2023-11-18T07:04:59;1.00;;;0.57;;
74415;SDS011;62850;42.428;25.618;2023-11-18T07:07:24;0.73;;;0.50;;
74415;SDS011;62850;42.428;25.618;2023-11-18T07:09:50;1.05;;;0.52;;
74415;SDS011;62850;42.428;25.618;2023-11-18T07:12:17;1.75;;;0.90;;
74415;SDS011;62850;42.428;25.618;2023-11-18T07:14:44;3.08;;;0.52;;
74415;SDS011;62850;42.428;25.618;2023-11-18T07:17:10;1.08;;;0.57;;
74415;SDS011;62850;42.428;25.618;2023-11-18T07:19:35;1.50;;;0.65;;
74415;SDS011;62850;42.428;25.618;2023-11-18T07:22:01;1.20;;;0.70;;
74415;SDS011;62850;42.428;25.618;2023-11-18T07:24:27;1.27;;;0.77;;
74415;SDS011;62850;42.428;25.618;2023-11-18T07:26:55;1.30;;;0.65;;
74415;SDS011;62850;42.428;25.618;2023-11-18T07:29:20;0.85;;;0.40;;
74415;SDS011;62850;42.428;25.618;2023-11-18T07:31:48;1.15;;;0.60;;
74415;SDS011;62850;42.428;25.618;2023-11-18T07:34:14;0.82;;;0.55;;
74415;SDS011;62850;42.428;25.618;2023-11-18T07:36:40;1.45;;;0.70;;
74415;SDS011;62850;42.428;25.618;2023-11-18T07:39:05;1.08;;;0.60;;
74415;SDS011;62850;42.428;25.618;2023-11-18T07:41:40;0.82;;;0.50;;
74415;SDS011;62850;42.428;25.618;2023-11-18T07:44:06;1.73;;;0.60;;
74415;SDS011;62850;42.428;25.618;2023-11-18T07:46:31;1.42;;;0.60;;
74415;SDS011;62850;42.428;25.618;2023-11-18T07:48:57;1.40;;;0.77;;
74415;SDS011;62850;42.428;25.618;2023-11-18T07:51:23;2.80;;;0.90;;
74415;SDS011;62850;42.428;25.618;2023-11-18T07:53:49;2.58;;;0.75;;
74415;SDS011;62850;42.428;25.618;2023-11-18T07:56:15;2.50;;;0.95;;
74415;SDS011;62850;42.428;25.618;2023-11-18T07:58:42;2.35;;;0.70;;
74415;SDS011;62850;42.428;25.618;2023-11-18T08:01:10;2.40;;;0.88;;
74415;SDS011;62850;42.428;25.618;2023-11-18T08:03:36;1.48;;;0.50;;
74415;SDS011;62850;42.428;25.618;2023-11-18T08:06:03;1.92;;;0.75;;
74415;SDS011;62850;42.428;25.618;2023-11-18T08:08:32;1.67;;;0.60;;
74415;SDS011;62850;42.428;25.618;2023-11-18T08:11:08;3.53;;;0.80;;
74415;SDS011;62850;42.428;25.618;2023-11-18T08:13:37;1.65;;;0.60;;
74415;SDS011;62850;42.428;25.618;2023-11-18T08:16:02;2.75;;;0.90;;
74415;SDS011;62850;42.428;25.618;2023-11-18T08:18:28;2.65;;;1.00;;
74415;SDS011;62850;42.428;25.618;2023-11-18T08:20:56;2.58;;;0.90;;
74415;SDS011;62850;42.428;25.618;2023-11-18T08:23:22;1.90;;;0.73;;
74415;SDS011;62850;42.428;25.618;2023-11-18T08:25:48;3.63;;;0.80;;
74415;SDS011;62850;42.428;25.618;2023-11-18T08:28:15;2.10;;;0.80;;
74415;SDS011;62850;42.428;25.618;2023-11-18T08:30:41;3.08;;;1.10;;
74415;SDS011;62850;42.428;25.618;2023-11-18T08:33:07;3.70;;;0.65;;
74415;SDS011;62850;42.428;25.618;2023-11-18T08:35:35;3.35;;;0.90;;
74415;SDS011;62850;42.428;25.618;2023-11-18T08:38:01;1.23;;;0.60;;
74415;SDS011;62850;42.428;25.618;2023-11-18T08:40:29;2.10;;;0.60;;
74415;SDS011;62850;42.428;25.618;2023-11-18T08:42:54;1.33;;;0.57;;
74415;SDS011;62850;42.428;25.618;2023-11-18T08:45:26;2.10;;;0.80;;
74415;SDS011;62850;42.428;25.618;2023-11-18T08:47:54;1.40;;;0.77;;
74415;SDS011;62850;42.428;25.618;2023-11-18T08:50:22;1.45;;;0.60;;
74415;SDS011;62850;42.428;25.618;2023-11-18T08:52:51;0.95;;;0.55;;
74415;SDS011;62850;42.428;25.618;2023-11-18T08:55:23;1.80;;;0.70;;
74415;SDS011;62850;42.428;25.618;2023-11-18T08:58:04;0.57;;;0.50;;
74415;SDS011;62850;42.428;25.618;2023-11-18T09:00:41;1.40;;;0.68;;
74415;SDS011;62850;42.428;25.618;2023-11-18T09:03:10;1.05;;;0.50;;
74415;SDS011;62850;42.428;25.618;2023-11-18T09:05:48;3.20;;;0.75;;
74415;SDS011;62850;42.428;25.618;2023-11-18T09:11:00;2.00;;;0.75;;
74415;SDS011;62850;42.428;25.618;2023-11-18T09:13:26;1.10;;;0.68;;
74415;SDS011;62850;42.428;25.618;2023-11-18T09:15:57;1.00;;;0.60;;
74415;SDS011;62850;42.428;25.618;2023-11-18T09:18:25;1.00;;;0.65;;
74415;SDS011;62850;42.428;25.618;2023-11-18T09:20:52;2.55;;;0.90;;
74415;SDS011;62850;42.428;25.618;2023-11-18T09:23:20;2.25;;;0.80;;
74415;SDS011;62850;42.428;25.618;2023-11-18T09:25:48;1.65;;;0.60;;
74415;SDS011;62850;42.428;25.618;2023-11-18T09:28:15;1.95;;;0.60;;
74415;SDS011;62850;42.428;25.618;2023-11-18T09:30:42;1.58;;;0.70;;
74415;SDS011;62850;42.428;25.618;2023-11-18T09:33:23;1.75;;;0.70;;
74415;SDS011;62850;42.428;25.618;2023-11-18T09:38:31;1.92;;;0.80;;
74415;SDS011;62850;42.428;25.618;2023-11-18T09:40:58;2.75;;;1.00;;
74415;SDS011;62850;42.428;25.618;2023-11-18T09:43:30;1.45;;;0.70;;
74415;SDS011;62850;42.428;25.618;2023-11-18T09:46:07;1.65;;;0.77;;
74415;SDS011;62850;42.428;25.618;2023-11-18T09:48:44;1.48;;;0.70;;
74415;SDS011;62850;42.428;25.618;2023-11-18T09:51:27;2.47;;;0.82;;
74415;SDS011;62850;42.428;25.618;2023-11-18T09:54:00;2.30;;;0.80;;
74415;SDS011;62850;42.428;25.618;2023-11-18T10:02:09;1.58;;;0.75;;
74415;SDS011;62850;42.428;25.618;2023-11-18T10:04:36;1.55;;;0.65;;
74415;SDS011;62850;42.428;25.618;2023-11-18T10:07:05;3.17;;;0.70;;
74415;SDS011;62850;42.428;25.618;2023-11-18T10:09:32;3.72;;;0.50;;
74415;SDS011;62850;42.428;25.618;2023-11-18T10:12:04;2.03;;;0.50;;
74415;SDS011;62850;42.428;25.618;2023-11-18T10:14:34;0.85;;;0.50;;
74415;SDS011;62850;42.428;25.618;2023-11-18T10:17:03;1.55;;;0.70;;
74415;SDS011;62850;42.428;25.618;2023-11-18T10:20:05;0.57;;;0.30;;
74415;SDS011;62850;42.428;25.618;2023-11-18T10:22:37;6.03;;;1.20;;
74415;SDS011;62850;42.428;25.618;2023-11-18T10:25:03;1.70;;;0.65;;
74415;SDS011;62850;42.428;25.618;2023-11-18T10:27:31;1.33;;;0.70;;
74415;SDS011;62850;42.428;25.618;2023-11-18T10:32:22;1.40;;;0.63;;
74415;SDS011;62850;42.428;25.618;2023-11-18T10:34:53;2.40;;;0.80;;
74415;SDS011;62850;42.428;25.618;2023-11-18T10:37:20;1.40;;;0.63;;
74415;SDS011;62850;42.428;25.618;2023-11-18T10:39:47;2.17;;;0.82;;
74415;SDS011;62850;42.428;25.618;2023-11-18T10:42:16;1.67;;;0.80;;
74415;SDS011;62850;42.428;25.618;2023-11-18T10:44:58;1.65;;;0.80;;
74415;SDS011;62850;42.428;25.618;2023-11-18T10:47:28;4.25;;;1.60;;
74415;SDS011;62850;42.428;25.618;2023-11-18T10:49:57;2.13;;;1.00;;
74415;SDS011;62850;42.428;25.618;2023-11-18T10:52:23;1.63;;;0.80;;
74415;SDS011;62850;42.428;25.618;2023-11-18T10:54:54;1.08;;;0.45;;
74415;SDS011;62850;42.428;25.618;2023-11-18T10:57:21;1.60;;;0.73;;
74415;SDS011;62850;42.428;25.618;2023-11-18T11:00:04;1.13;;;0.60;;
74415;SDS011;62850;42.428;25.618;2023-11-18T11:02:40;0.47;;;0.40;;
74415;SDS011;62850;42.428;25.618;2023-11-18T11:05:12;1.45;;;0.60;;
74415;SDS011;62850;42.428;25.618;2023-11-18T11:07:57;1.50;;;0.60;;
74415;SDS011;62850;42.428;25.618;2023-11-18T11:10:24;1.23;;;0.50;;
74415;SDS011;62850;42.428;25.618;2023-11-18T11:12:53;1.77;;;0.73;;
74415;SDS011;62850;42.428;25.618;2023-11-18T11:15:28;1.17;;;0.50;;
74415;SDS011;62850;42.428;25.618;2023-11-18T11:17:57;0.60;;;0.40;;
74415;SDS011;62850;42.428;25.618;2023-11-18T11:20:34;3.08;;;0.80;;
74415;SDS011;62850;42.428;25.618;2023-11-18T11:23:20;0.90;;;0.50;;
74415;SDS011;62850;42.428;25.618;2023-11-18T11:36:47;2.92;;;0.50;;
74415;SDS011;62850;42.428;25.618;2023-11-18T11:39:16;1.23;;;0.70;;
74415;SDS011;62850;42.428;25.618;2023-11-18T11:41:45;2.80;;;0.70;;
74415;SDS011;62850;42.428;25.618;2023-11-18T11:44:13;0.70;;;0.50;;
74415;SDS011;62850;42.428;25.618;2023-11-18T11:46:38;1.30;;;0.50;;
74415;SDS011;62850;42.428;25.618;2023-11-18T11:49:07;2.28;;;0.57;;
74415;SDS011;62850;42.428;25.618;2023-11-18T11:51:49;3.33;;;0.55;;
74415;SDS011;62850;42.428;25.618;2023-11-18T11:54:27;1.80;;;0.50;;
74415;SDS011;62850;42.428;25.618;2023-11-18T11:57:05;1.52;;;0.70;;
74415;SDS011;62850;42.428;25.618;2023-11-18T11:59:34;3.00;;;0.70;;
74415;SDS011;62850;42.428;25.618;2023-11-18T12:02:03;1.55;;;0.75;;
74415;SDS011;62850;42.428;25.618;2023-11-18T12:04:34;2.50;;;0.60;;
74415;SDS011;62850;42.428;25.618;2023-11-18T12:07:03;1.75;;;0.40;;
74415;SDS011;62850;42.428;25.618;2023-11-18T12:09:30;1.50;;;0.70;;
74415;SDS011;62850;42.428;25.618;2023-11-18T12:12:03;0.50;;;0.40;;
74415;SDS011;62850;42.428;25.618;2023-11-18T12:14:29;3.03;;;0.50;;
74415;SDS011;62850;42.428;25.618;2023-11-18T12:17:06;1.85;;;0.60;;
74415;SDS011;62850;42.428;25.618;2023-11-18T12:19:39;1.42;;;0.77;;
74415;SDS011;62850;42.428;25.618;2023-11-18T12:22:12;2.28;;;0.75;;
74415;SDS011;62850;42.428;25.618;2023-11-18T12:27:09;2.10;;;0.70;;
74415;SDS011;62850;42.428;25.618;2023-11-18T12:29:41;2.03;;;0.52;;
74415;SDS011;62850;42.428;25.618;2023-11-18T12:32:10;1.80;;;0.80;;
74415;SDS011;62850;42.428;25.618;2023-11-18T12:35:00;2.25;;;0.70;;
74415;SDS011;62850;42.428;25.618;2023-11-18T12:37:33;1.63;;;0.90;;
74415;SDS011;62850;42.428;25.618;2023-11-18T12:43:06;1.52;;;0.50;;
74415;SDS011;62850;42.428;25.618;2023-11-18T12:51:08;2.70;;;0.98;;
74415;SDS011;62850;42.428;25.618;2023-11-18T12:53:44;0.93;;;0.55;;
74415;SDS011;62850;42.428;25.618;2023-11-18T12:56:14;1.08;;;0.65;;
74415;SDS011;62850;42.428;25.618;2023-11-18T12:58:41;1.08;;;0.47;;
74415;SDS011;62850;42.428;25.618;2023-11-18T13:01:08;1.75;;;0.63;;
74415;SDS011;62850;42.428;25.618;2023-11-18T13:03:39;1.00;;;0.40;;
74415;SDS011;62850;42.428;25.618;2023-11-18T13:06:07;1.15;;;0.50;;
74415;SDS011;62850;42.428;25.618;2023-11-18T13:08:39;0.52;;;0.40;;
74415;SDS011;62850;42.428;25.618;2023-11-18T13:11:08;1.05;;;0.52;;
74415;SDS011;62850;42.428;25.618;2023-11-18T13:13:41;1.33;;;0.52;;
74415;SDS011;62850;42.428;25.618;2023-11-18T13:16:08;2.33;;;0.80;;
74415;SDS011;62850;42.428;25.618;2023-11-18T13:18:42;1.08;;;0.50;;
74415;SDS011;62850;42.428;25.618;2023-11-18T13:21:15;1.60;;;0.68;;
74415;SDS011;62850;42.428;25.618;2023-11-18T13:23:47;2.45;;;0.98;;
74415;SDS011;62850;42.428;25.618;2023-11-18T13:26:16;2.58;;;1.00;;
74415;SDS011;62850;42.428;25.618;2023-11-18T13:28:45;1.50;;;0.52;;
74415;SDS011;62850;42.428;25.618;2023-11-18T13:31:11;1.23;;;0.57;;
74415;SDS011;62850;42.428;25.618;2023-11-18T13:33:42;1.20;;;0.93;;
74415;SDS011;62850;42.428;25.618;2023-11-18T13:36:08;1.77;;;0.68;;
74415;SDS011;62850;42.428;25.618;2023-11-18T13:38:37;13.70;;;3.63;;
74415;SDS011;62850;42.428;25.618;2023-11-18T13:41:04;2.92;;;1.17;;
74415;SDS011;62850;42.428;25.618;2023-11-18T13:43:42;1.60;;;0.68;;
74415;SDS011;62850;42.428;25.618;2023-11-18T13:46:14;2.35;;;1.00;;
74415;SDS011;62850;42.428;25.618;2023-11-18T13:48:52;1.00;;;0.50;;
74415;SDS011;62850;42.428;25.618;2023-11-18T13:51:18;1.90;;;0.80;;
74415;SDS011;62850;42.428;25.618;2023-11-18T13:53:45;0.88;;;0.50;;
74415;SDS011;62850;42.428;25.618;2023-11-18T13:56:12;0.88;;;0.50;;
74415;SDS011;62850;42.428;25.618;2023-11-18T13:58:39;0.90;;;0.60;;
74415;SDS011;62850;42.428;25.618;2023-11-18T14:01:07;2.85;;;0.90;;
74415;SDS011;62850;42.428;25.618;2023-11-18T14:03:36;11.27;;;1.00;;
74415;SDS011;62850;42.428;25.618;2023-11-18T14:06:09;2.17;;;0.50;;
74415;SDS011;62850;42.428;25.618;2023-11-18T14:08:42;2.20;;;0.40;;
74415;SDS011;62850;42.428;25.618;2023-11-18T14:11:08;15.13;;;2.03;;
74415;SDS011;62850;42.428;25.618;2023-11-18T14:13:34;1.85;;;1.05;;
74415;SDS011;62850;42.428;25.618;2023-11-18T14:16:01;0.77;;;0.50;;
74415;SDS011;62850;42.428;25.618;2023-11-18T14:18:27;5.53;;;0.80;;
74415;SDS011;62850;42.428;25.618;2023-11-18T14:20:53;1.55;;;0.70;;
74415;SDS011;62850;42.428;25.618;2023-11-18T14:23:19;3.53;;;0.63;;
74415;SDS011;62850;42.428;25.618;2023-11-18T14:25:46;2.35;;;0.57;;
74415;SDS011;62850;42.428;25.618;2023-11-18T14:28:12;1.40;;;0.50;;
74415;SDS011;62850;42.428;25.618;2023-11-18T14:30:38;1.38;;;0.63;;
74415;SDS011;62850;42.428;25.618;2023-11-18T14:33:03;2.00;;;1.02;;
74415;SDS011;62850;42.428;25.618;2023-11-18T14:35:29;0.82;;;0.50;;
74415;SDS011;62850;42.428;25.618;2023-11-18T14:37:55;2.10;;;0.70;;
74415;SDS011;62850;42.428;25.618;2023-11-18T14:40:21;1.75;;;0.70;;
74415;SDS011;62850;42.428;25.618;2023-11-18T14:42:49;1.85;;;0.50;;
74415;SDS011;62850;42.428;25.618;2023-11-18T14:45:15;2.53;;;0.68;;
74415;SDS011;62850;42.428;25.618;2023-11-18T14:47:41;2.78;;;0.80;;
74415;SDS011;62850;42.428;25.618;2023-11-18T14:50:10;1.13;;;0.52;;
74415;SDS011;62850;42.428;25.618;2023-11-18T14:52:45;1.73;;;0.70;;
74415;SDS011;62850;42.428;25.618;2023-11-18T14:55:16;0.57;;;0.28;;
74415;SDS011;62850;42.428;25.618;2023-11-18T14:57:43;0.60;;;0.47;;
74415;SDS011;62850;42.428;25.618;2023-11-18T15:00:10;2.47;;;1.05;;
74415;SDS011;62850;42.428;25.618;2023-11-18T15:02:53;3.55;;;1.08;;
74415;SDS011;62850;42.428;25.618;2023-11-18T15:05:20;2.72;;;1.10;;
74415;SDS011;62850;42.428;25.618;2023-11-18T15:07:53;2.88;;;1.23;;
74415;SDS011;62850;42.428;25.618;2023-11-18T15:10:23;2.33;;;1.17;;
74415;SDS011;62850;42.428;25.618;2023-11-18T15:15:22;1.52;;;0.70;;
74415;SDS011;62850;42.428;25.618;2023-11-18T15:17:56;2.50;;;0.98;;
74415;SDS011;62850;42.428;25.618;2023-11-18T15:20:28;1.92;;;0.98;;
74415;SDS011;62850;42.428;25.618;2023-11-18T15:22:54;1.83;;;0.68;;